sensor_id;sensor_type;location;lat;lon;timestamp;P1;durP1;ratioP1;P2;durP2;ratioP2
13481;SDS011;6813;60.352;15.746;2022-10-16T00:01:17;34.27;;;7.80;;
13481;SDS011;6813;60.352;15.746;2022-10-16T00:03:45;20.03;;;7.57;;
13481;SDS011;6813;60.352;15.746;2022-10-16T00:06:12;10.77;;;6.80;;
13481;SDS011;6813;60.352;15.746;2022-10-16T00:08:38;9.87;;;6.77;;
13481;SDS011;6813;60.352;15.746;2022-10-16T00:11:06;8.77;;;7.50;;
13481;SDS011;6813;60.352;15.746;2022-10-16T00:13:34;9.47;;;6.80;;
13481;SDS011;6813;60.352;15.746;2022-10-16T00:16:01;8.70;;;6.93;;
13481;SDS011;6813;60.352;15.746;2022-10-16T00:18:28;8.90;;;7.60;;
13481;SDS011;6813;60.352;15.746;2022-10-16T00:20:55;7.87;;;7.07;;
13481;SDS011;6813;60.352;15.746;2022-10-16T00:23:26;7.57;;;6.50;;
13481;SDS011;6813;60.352;15.746;2022-10-16T00:25:55;9.67;;;7.40;;
13481;SDS011;6813;60.352;15.746;2022-10-16T00:28:22;7.40;;;6.70;;
13481;SDS011;6813;60.352;15.746;2022-10-16T00:30:48;8.07;;;6.80;;
13481;SDS011;6813;60.352;15.746;2022-10-16T00:33:13;7.70;;;6.80;;
13481;SDS011;6813;60.352;15.746;2022-10-16T00:35:39;7.33;;;6.63;;
13481;SDS011;6813;60.352;15.746;2022-10-16T00:38:05;7.47;;;6.67;;
13481;SDS011;6813;60.352;15.746;2022-10-16T00:40:31;7.50;;;6.80;;
13481;SDS011;6813;60.352;15.746;2022-10-16T00:42:57;8.40;;;7.50;;
13481;SDS011;6813;60.352;15.746;2022-10-16T00:45:23;8.50;;;7.40;;
13481;SDS011;6813;60.352;15.746;2022-10-16T00:47:49;8.07;;;6.23;;
13481;SDS011;6813;60.352;15.746;2022-10-16T00:50:28;6.80;;;6.20;;
13481;SDS011;6813;60.352;15.746;2022-10-16T00:52:57;6.80;;;6.20;;
13481;SDS011;6813;60.352;15.746;2022-10-16T00:55:25;6.40;;;5.77;;
13481;SDS011;6813;60.352;15.746;2022-10-16T00:57:53;7.23;;;5.87;;
13481;SDS011;6813;60.352;15.746;2022-10-16T01:00:21;6.33;;;5.60;;
13481;SDS011;6813;60.352;15.746;2022-10-16T01:02:55;7.73;;;6.17;;
13481;SDS011;6813;60.352;15.746;2022-10-16T01:05:23;6.40;;;5.80;;
13481;SDS011;6813;60.352;15.746;2022-10-16T01:10:29;5.50;;;5.00;;
13481;SDS011;6813;60.352;15.746;2022-10-16T01:15:37;4.50;;;4.07;;
13481;SDS011;6813;60.352;15.746;2022-10-16T01:18:08;4.77;;;4.17;;
13481;SDS011;6813;60.352;15.746;2022-10-16T01:23:37;5.90;;;3.30;;
13481;SDS011;6813;60.352;15.746;2022-10-16T01:28:55;2.83;;;2.57;;
13481;SDS011;6813;60.352;15.746;2022-10-16T01:31:40;2.00;;;1.90;;
13481;SDS011;6813;60.352;15.746;2022-10-16T01:34:17;2.07;;;1.47;;
13481;SDS011;6813;60.352;15.746;2022-10-16T01:36:55;2.17;;;1.63;;
13481;SDS011;6813;60.352;15.746;2022-10-16T01:39:25;2.03;;;1.70;;
13481;SDS011;6813;60.352;15.746;2022-10-16T01:41:58;3.40;;;1.60;;
13481;SDS011;6813;60.352;15.746;2022-10-16T01:44:30;2.10;;;1.40;;
13481;SDS011;6813;60.352;15.746;2022-10-16T01:46:58;1.80;;;1.47;;
13481;SDS011;6813;60.352;15.746;2022-10-16T01:49:26;1.40;;;1.00;;
13481;SDS011;6813;60.352;15.746;2022-10-16T01:51:56;1.20;;;1.00;;
13481;SDS011;6813;60.352;15.746;2022-10-16T01:54:28;1.20;;;1.10;;
13481;SDS011;6813;60.352;15.746;2022-10-16T01:56:56;1.10;;;1.00;;
13481;SDS011;6813;60.352;15.746;2022-10-16T01:59:25;1.10;;;1.00;;
13481;SDS011;6813;60.352;15.746;2022-10-16T02:01:52;1.77;;;1.13;;
13481;SDS011;6813;60.352;15.746;2022-10-16T02:04:29;1.47;;;1.37;;
13481;SDS011;6813;60.352;15.746;2022-10-16T02:06:59;1.53;;;1.00;;
13481;SDS011;6813;60.352;15.746;2022-10-16T02:09:25;2.27;;;1.30;;
13481;SDS011;6813;60.352;15.746;2022-10-16T02:11:52;1.73;;;1.20;;
13481;SDS011;6813;60.352;15.746;2022-10-16T02:14:21;1.27;;;1.17;;
13481;SDS011;6813;60.352;15.746;2022-10-16T02:16:49;1.17;;;1.10;;
13481;SDS011;6813;60.352;15.746;2022-10-16T02:19:15;0.93;;;0.90;;
13481;SDS011;6813;60.352;15.746;2022-10-16T02:21:56;1.00;;;1.00;;
13481;SDS011;6813;60.352;15.746;2022-10-16T02:29:42;0.80;;;0.80;;
13481;SDS011;6813;60.352;15.746;2022-10-16T02:32:15;1.10;;;1.00;;
13481;SDS011;6813;60.352;15.746;2022-10-16T02:34:46;1.07;;;0.90;;
13481;SDS011;6813;60.352;15.746;2022-10-16T02:37:14;0.80;;;0.80;;
13481;SDS011;6813;60.352;15.746;2022-10-16T02:39:41;0.80;;;0.80;;
13481;SDS011;6813;60.352;15.746;2022-10-16T02:42:13;1.20;;;1.10;;
13481;SDS011;6813;60.352;15.746;2022-10-16T02:44:40;1.10;;;0.80;;
13481;SDS011;6813;60.352;15.746;2022-10-16T02:47:06;0.87;;;0.87;;
13481;SDS011;6813;60.352;15.746;2022-10-16T02:49:32;1.70;;;1.50;;
13481;SDS011;6813;60.352;15.746;2022-10-16T02:51:57;0.83;;;0.83;;
13481;SDS011;6813;60.352;15.746;2022-10-16T02:54:23;0.93;;;0.70;;
13481;SDS011;6813;60.352;15.746;2022-10-16T02:56:49;0.80;;;0.80;;
13481;SDS011;6813;60.352;15.746;2022-10-16T02:59:15;0.80;;;0.80;;
13481;SDS011;6813;60.352;15.746;2022-10-16T03:01:41;0.80;;;0.80;;
13481;SDS011;6813;60.352;15.746;2022-10-16T03:04:06;0.70;;;0.70;;
13481;SDS011;6813;60.352;15.746;2022-10-16T03:06:32;0.60;;;0.60;;
13481;SDS011;6813;60.352;15.746;2022-10-16T03:08:58;0.87;;;0.87;;
13481;SDS011;6813;60.352;15.746;2022-10-16T03:11:23;0.73;;;0.73;;
13481;SDS011;6813;60.352;15.746;2022-10-16T03:13:49;2.73;;;2.53;;
13481;SDS011;6813;60.352;15.746;2022-10-16T03:16:15;3.27;;;0.83;;
13481;SDS011;6813;60.352;15.746;2022-10-16T03:18:40;1.80;;;0.90;;
13481;SDS011;6813;60.352;15.746;2022-10-16T03:21:06;0.50;;;0.50;;
13481;SDS011;6813;60.352;15.746;2022-10-16T03:23:32;1.37;;;0.80;;
13481;SDS011;6813;60.352;15.746;2022-10-16T03:25:57;0.97;;;0.60;;
13481;SDS011;6813;60.352;15.746;2022-10-16T03:28:24;1.37;;;1.03;;
13481;SDS011;6813;60.352;15.746;2022-10-16T03:30:49;1.10;;;1.00;;
13481;SDS011;6813;60.352;15.746;2022-10-16T03:33:15;0.77;;;0.60;;
13481;SDS011;6813;60.352;15.746;2022-10-16T03:35:41;0.50;;;0.50;;
13481;SDS011;6813;60.352;15.746;2022-10-16T03:38:06;0.70;;;0.70;;
13481;SDS011;6813;60.352;15.746;2022-10-16T03:40:32;1.17;;;0.80;;
13481;SDS011;6813;60.352;15.746;2022-10-16T03:42:58;0.80;;;0.70;;
13481;SDS011;6813;60.352;15.746;2022-10-16T03:45:24;1.43;;;1.33;;
13481;SDS011;6813;60.352;15.746;2022-10-16T03:47:51;1.67;;;1.33;;
13481;SDS011;6813;60.352;15.746;2022-10-16T03:50:16;1.83;;;1.27;;
13481;SDS011;6813;60.352;15.746;2022-10-16T03:52:42;2.50;;;0.97;;
13481;SDS011;6813;60.352;15.746;2022-10-16T03:55:08;1.97;;;0.90;;
13481;SDS011;6813;60.352;15.746;2022-10-16T03:57:33;1.00;;;0.90;;
13481;SDS011;6813;60.352;15.746;2022-10-16T03:59:59;0.90;;;0.90;;
13481;SDS011;6813;60.352;15.746;2022-10-16T04:02:25;0.77;;;0.77;;
13481;SDS011;6813;60.352;15.746;2022-10-16T04:04:50;1.00;;;0.80;;
13481;SDS011;6813;60.352;15.746;2022-10-16T04:07:16;1.80;;;0.87;;
13481;SDS011;6813;60.352;15.746;2022-10-16T04:09:42;2.93;;;0.90;;
13481;SDS011;6813;60.352;15.746;2022-10-16T04:12:07;1.23;;;0.80;;
13481;SDS011;6813;60.352;15.746;2022-10-16T04:14:33;1.27;;;0.90;;
13481;SDS011;6813;60.352;15.746;2022-10-16T04:16:59;2.67;;;0.93;;
13481;SDS011;6813;60.352;15.746;2022-10-16T04:19:24;1.23;;;0.80;;
13481;SDS011;6813;60.352;15.746;2022-10-16T04:21:51;11.93;;;10.80;;
13481;SDS011;6813;60.352;15.746;2022-10-16T04:24:16;4.23;;;2.33;;
13481;SDS011;6813;60.352;15.746;2022-10-16T04:26:42;1.90;;;1.27;;
13481;SDS011;6813;60.352;15.746;2022-10-16T04:29:07;0.80;;;0.80;;
13481;SDS011;6813;60.352;15.746;2022-10-16T04:31:33;3.50;;;0.90;;
13481;SDS011;6813;60.352;15.746;2022-10-16T04:33:59;4.30;;;1.73;;
13481;SDS011;6813;60.352;15.746;2022-10-16T04:36:25;2.67;;;1.30;;
13481;SDS011;6813;60.352;15.746;2022-10-16T04:38:50;1.20;;;0.90;;
13481;SDS011;6813;60.352;15.746;2022-10-16T04:41:16;2.50;;;0.97;;
13481;SDS011;6813;60.352;15.746;2022-10-16T04:43:41;2.07;;;0.70;;
13481;SDS011;6813;60.352;15.746;2022-10-16T04:46:07;1.23;;;0.93;;
13481;SDS011;6813;60.352;15.746;2022-10-16T04:48:33;2.37;;;1.00;;
13481;SDS011;6813;60.352;15.746;2022-10-16T04:50:59;1.77;;;1.17;;
13481;SDS011;6813;60.352;15.746;2022-10-16T04:53:24;3.23;;;0.90;;
13481;SDS011;6813;60.352;15.746;2022-10-16T04:55:50;4.43;;;1.37;;
13481;SDS011;6813;60.352;15.746;2022-10-16T04:58:16;2.00;;;1.10;;
13481;SDS011;6813;60.352;15.746;2022-10-16T05:00:42;2.33;;;1.17;;
13481;SDS011;6813;60.352;15.746;2022-10-16T05:03:09;2.77;;;0.97;;
13481;SDS011;6813;60.352;15.746;2022-10-16T05:05:35;1.90;;;0.93;;
13481;SDS011;6813;60.352;15.746;2022-10-16T05:08:01;4.00;;;1.10;;
13481;SDS011;6813;60.352;15.746;2022-10-16T05:10:27;4.23;;;1.23;;
13481;SDS011;6813;60.352;15.746;2022-10-16T05:12:53;4.37;;;1.40;;
13481;SDS011;6813;60.352;15.746;2022-10-16T05:15:19;1.90;;;1.27;;
13481;SDS011;6813;60.352;15.746;2022-10-16T05:17:44;4.73;;;1.60;;
13481;SDS011;6813;60.352;15.746;2022-10-16T05:20:11;2.20;;;1.40;;
13481;SDS011;6813;60.352;15.746;2022-10-16T05:22:37;2.33;;;1.30;;
13481;SDS011;6813;60.352;15.746;2022-10-16T05:25:03;5.17;;;1.83;;
13481;SDS011;6813;60.352;15.746;2022-10-16T05:27:30;4.37;;;1.40;;
13481;SDS011;6813;60.352;15.746;2022-10-16T05:29:56;5.73;;;1.13;;
13481;SDS011;6813;60.352;15.746;2022-10-16T05:32:21;6.13;;;1.40;;
13481;SDS011;6813;60.352;15.746;2022-10-16T05:34:47;4.40;;;1.40;;
13481;SDS011;6813;60.352;15.746;2022-10-16T05:37:12;6.03;;;1.33;;
13481;SDS011;6813;60.352;15.746;2022-10-16T05:39:38;2.33;;;0.90;;
13481;SDS011;6813;60.352;15.746;2022-10-16T05:42:04;4.67;;;1.53;;
13481;SDS011;6813;60.352;15.746;2022-10-16T05:44:30;5.60;;;1.77;;
13481;SDS011;6813;60.352;15.746;2022-10-16T05:46:56;4.80;;;1.20;;
13481;SDS011;6813;60.352;15.746;2022-10-16T05:49:22;5.47;;;1.60;;
13481;SDS011;6813;60.352;15.746;2022-10-16T05:51:48;2.40;;;1.23;;
13481;SDS011;6813;60.352;15.746;2022-10-16T05:54:14;5.97;;;1.73;;
13481;SDS011;6813;60.352;15.746;2022-10-16T05:56:40;3.20;;;1.47;;
13481;SDS011;6813;60.352;15.746;2022-10-16T05:59:05;2.90;;;1.10;;
13481;SDS011;6813;60.352;15.746;2022-10-16T06:01:31;2.07;;;1.10;;
13481;SDS011;6813;60.352;15.746;2022-10-16T06:03:57;4.43;;;1.33;;
13481;SDS011;6813;60.352;15.746;2022-10-16T06:06:25;6.17;;;1.60;;
13481;SDS011;6813;60.352;15.746;2022-10-16T06:08:52;4.57;;;1.30;;
13481;SDS011;6813;60.352;15.746;2022-10-16T06:11:21;2.07;;;1.20;;
13481;SDS011;6813;60.352;15.746;2022-10-16T06:13:51;5.17;;;1.70;;
13481;SDS011;6813;60.352;15.746;2022-10-16T06:16:18;2.70;;;1.40;;
13481;SDS011;6813;60.352;15.746;2022-10-16T06:18:43;3.73;;;1.27;;
13481;SDS011;6813;60.352;15.746;2022-10-16T06:21:10;6.67;;;1.30;;
13481;SDS011;6813;60.352;15.746;2022-10-16T06:23:38;2.60;;;1.07;;
13481;SDS011;6813;60.352;15.746;2022-10-16T06:26:11;3.37;;;1.27;;
13481;SDS011;6813;60.352;15.746;2022-10-16T06:28:38;2.87;;;1.17;;
13481;SDS011;6813;60.352;15.746;2022-10-16T06:31:05;3.30;;;1.40;;
13481;SDS011;6813;60.352;15.746;2022-10-16T06:33:32;3.93;;;1.27;;
13481;SDS011;6813;60.352;15.746;2022-10-16T06:36:05;4.17;;;1.40;;
13481;SDS011;6813;60.352;15.746;2022-10-16T06:38:35;4.33;;;1.60;;
13481;SDS011;6813;60.352;15.746;2022-10-16T06:41:02;3.30;;;1.60;;
13481;SDS011;6813;60.352;15.746;2022-10-16T06:43:28;3.27;;;1.47;;
13481;SDS011;6813;60.352;15.746;2022-10-16T06:45:57;4.20;;;1.63;;
13481;SDS011;6813;60.352;15.746;2022-10-16T06:48:24;5.23;;;1.60;;
13481;SDS011;6813;60.352;15.746;2022-10-16T06:50:57;5.70;;;2.20;;
13481;SDS011;6813;60.352;15.746;2022-10-16T06:53:36;5.33;;;2.00;;
13481;SDS011;6813;60.352;15.746;2022-10-16T06:58:33;4.90;;;1.60;;
13481;SDS011;6813;60.352;15.746;2022-10-16T07:00:59;5.03;;;2.23;;
13481;SDS011;6813;60.352;15.746;2022-10-16T07:03:24;5.50;;;1.67;;
13481;SDS011;6813;60.352;15.746;2022-10-16T07:05:50;5.20;;;1.23;;
13481;SDS011;6813;60.352;15.746;2022-10-16T07:08:16;4.70;;;1.73;;
13481;SDS011;6813;60.352;15.746;2022-10-16T07:10:41;5.33;;;1.67;;
13481;SDS011;6813;60.352;15.746;2022-10-16T07:13:07;3.23;;;1.53;;
13481;SDS011;6813;60.352;15.746;2022-10-16T07:15:33;2.97;;;1.50;;
13481;SDS011;6813;60.352;15.746;2022-10-16T07:17:59;4.93;;;1.53;;
13481;SDS011;6813;60.352;15.746;2022-10-16T07:20:24;3.47;;;1.50;;
13481;SDS011;6813;60.352;15.746;2022-10-16T07:22:50;4.07;;;1.63;;
13481;SDS011;6813;60.352;15.746;2022-10-16T07:25:17;3.30;;;1.60;;
13481;SDS011;6813;60.352;15.746;2022-10-16T07:27:42;2.40;;;1.40;;
13481;SDS011;6813;60.352;15.746;2022-10-16T07:30:08;5.90;;;1.70;;
13481;SDS011;6813;60.352;15.746;2022-10-16T07:32:34;5.87;;;1.73;;
13481;SDS011;6813;60.352;15.746;2022-10-16T07:35:00;5.07;;;1.43;;
13481;SDS011;6813;60.352;15.746;2022-10-16T07:37:25;2.60;;;1.10;;
13481;SDS011;6813;60.352;15.746;2022-10-16T07:39:51;4.23;;;1.57;;
13481;SDS011;6813;60.352;15.746;2022-10-16T07:42:17;4.77;;;1.53;;
13481;SDS011;6813;60.352;15.746;2022-10-16T07:44:42;6.73;;;1.67;;
13481;SDS011;6813;60.352;15.746;2022-10-16T07:47:08;5.43;;;1.67;;
13481;SDS011;6813;60.352;15.746;2022-10-16T07:49:34;3.10;;;1.30;;
13481;SDS011;6813;60.352;15.746;2022-10-16T07:52:00;6.00;;;1.70;;
13481;SDS011;6813;60.352;15.746;2022-10-16T07:54:25;5.53;;;1.77;;
13481;SDS011;6813;60.352;15.746;2022-10-16T07:56:51;3.80;;;1.60;;
13481;SDS011;6813;60.352;15.746;2022-10-16T07:59:16;5.20;;;1.37;;
13481;SDS011;6813;60.352;15.746;2022-10-16T08:01:42;4.10;;;1.70;;
13481;SDS011;6813;60.352;15.746;2022-10-16T08:04:08;4.37;;;1.87;;
13481;SDS011;6813;60.352;15.746;2022-10-16T08:06:37;4.03;;;1.50;;
13481;SDS011;6813;60.352;15.746;2022-10-16T08:09:04;6.27;;;1.87;;
13481;SDS011;6813;60.352;15.746;2022-10-16T08:11:30;7.50;;;1.80;;
13481;SDS011;6813;60.352;15.746;2022-10-16T08:13:56;4.27;;;1.50;;
13481;SDS011;6813;60.352;15.746;2022-10-16T08:16:22;6.63;;;1.73;;
13481;SDS011;6813;60.352;15.746;2022-10-16T08:18:48;6.07;;;1.90;;
13481;SDS011;6813;60.352;15.746;2022-10-16T08:21:16;6.60;;;1.80;;
13481;SDS011;6813;60.352;15.746;2022-10-16T08:23:44;5.70;;;1.93;;
13481;SDS011;6813;60.352;15.746;2022-10-16T08:26:10;6.50;;;1.70;;
13481;SDS011;6813;60.352;15.746;2022-10-16T08:28:36;8.07;;;2.03;;
13481;SDS011;6813;60.352;15.746;2022-10-16T08:31:06;5.30;;;1.63;;
13481;SDS011;6813;60.352;15.746;2022-10-16T08:33:40;10.87;;;1.90;;
13481;SDS011;6813;60.352;15.746;2022-10-16T08:36:07;5.63;;;1.70;;
13481;SDS011;6813;60.352;15.746;2022-10-16T08:38:34;3.47;;;1.63;;
13481;SDS011;6813;60.352;15.746;2022-10-16T08:49:16;7.70;;;1.90;;
13481;SDS011;6813;60.352;15.746;2022-10-16T08:51:43;3.67;;;1.67;;
13481;SDS011;6813;60.352;15.746;2022-10-16T08:54:21;7.77;;;1.90;;
13481;SDS011;6813;60.352;15.746;2022-10-16T08:57:00;4.40;;;1.80;;
13481;SDS011;6813;60.352;15.746;2022-10-16T08:59:41;3.43;;;1.43;;
13481;SDS011;6813;60.352;15.746;2022-10-16T09:05:22;8.17;;;2.23;;
13481;SDS011;6813;60.352;15.746;2022-10-16T09:18:43;3.73;;;1.60;;
13481;SDS011;6813;60.352;15.746;2022-10-16T09:21:15;6.15;;;2.03;;
13481;SDS011;6813;60.352;15.746;2022-10-16T09:23:46;6.83;;;1.77;;
13481;SDS011;6813;60.352;15.746;2022-10-16T09:26:13;6.80;;;1.73;;
13481;SDS011;6813;60.352;15.746;2022-10-16T09:28:40;6.87;;;1.90;;
13481;SDS011;6813;60.352;15.746;2022-10-16T09:31:09;2.65;;;1.60;;
13481;SDS011;6813;60.352;15.746;2022-10-16T09:33:49;6.85;;;1.90;;
13481;SDS011;6813;60.352;15.746;2022-10-16T09:36:23;3.73;;;1.80;;
13481;SDS011;6813;60.352;15.746;2022-10-16T09:39:00;8.50;;;2.33;;
13481;SDS011;6813;60.352;15.746;2022-10-16T09:41:37;5.03;;;1.90;;
13481;SDS011;6813;60.352;15.746;2022-10-16T09:44:06;5.32;;;1.80;;
13481;SDS011;6813;60.352;15.746;2022-10-16T09:47:05;6.70;;;2.30;;
13481;SDS011;6813;60.352;15.746;2022-10-16T09:52:51;6.23;;;1.97;;
13481;SDS011;6813;60.352;15.746;2022-10-16T09:55:35;4.10;;;1.67;;
13481;SDS011;6813;60.352;15.746;2022-10-16T09:58:01;7.70;;;2.90;;
13481;SDS011;6813;60.352;15.746;2022-10-16T10:00:26;7.07;;;1.87;;
13481;SDS011;6813;60.352;15.746;2022-10-16T10:02:53;5.38;;;1.63;;
13481;SDS011;6813;60.352;15.746;2022-10-16T10:08:12;5.63;;;2.03;;
13481;SDS011;6813;60.352;15.746;2022-10-16T10:10:41;6.22;;;1.98;;
13481;SDS011;6813;60.352;15.746;2022-10-16T10:13:18;5.63;;;1.95;;
13481;SDS011;6813;60.352;15.746;2022-10-16T10:15:45;7.63;;;2.00;;
13481;SDS011;6813;60.352;15.746;2022-10-16T10:18:15;6.90;;;2.13;;
13481;SDS011;6813;60.352;15.746;2022-10-16T10:20:46;8.10;;;2.00;;
13481;SDS011;6813;60.352;15.746;2022-10-16T10:23:26;5.10;;;2.10;;
13481;SDS011;6813;60.352;15.746;2022-10-16T10:26:11;7.45;;;1.92;;
13481;SDS011;6813;60.352;15.746;2022-10-16T10:29:06;5.75;;;2.03;;
13481;SDS011;6813;60.352;15.746;2022-10-16T10:37:14;8.40;;;1.73;;
13481;SDS011;6813;60.352;15.746;2022-10-16T10:46:34;6.78;;;2.08;;
13481;SDS011;6813;60.352;15.746;2022-10-16T10:49:53;7.22;;;1.83;;
13481;SDS011;6813;60.352;15.746;2022-10-16T10:55:44;6.07;;;2.03;;
13481;SDS011;6813;60.352;15.746;2022-10-16T11:01:50;5.80;;;2.03;;
13481;SDS011;6813;60.352;15.746;2022-10-16T11:07:07;6.10;;;2.05;;
13481;SDS011;6813;60.352;15.746;2022-10-16T11:10:09;6.40;;;2.08;;
13481;SDS011;6813;60.352;15.746;2022-10-16T11:12:44;6.43;;;1.75;;
13481;SDS011;6813;60.352;15.746;2022-10-16T11:15:17;8.27;;;2.05;;
13481;SDS011;6813;60.352;15.746;2022-10-16T11:17:52;10.85;;;1.80;;
13481;SDS011;6813;60.352;15.746;2022-10-16T11:20:31;5.28;;;1.90;;
13481;SDS011;6813;60.352;15.746;2022-10-16T11:23:18;6.95;;;1.90;;
13481;SDS011;6813;60.352;15.746;2022-10-16T11:26:02;7.63;;;2.30;;
13481;SDS011;6813;60.352;15.746;2022-10-16T11:28:33;7.63;;;2.17;;
13481;SDS011;6813;60.352;15.746;2022-10-16T11:31:17;4.85;;;1.50;;
13481;SDS011;6813;60.352;15.746;2022-10-16T11:36:36;5.75;;;1.92;;
13481;SDS011;6813;60.352;15.746;2022-10-16T11:39:24;6.07;;;2.08;;
13481;SDS011;6813;60.352;15.746;2022-10-16T11:41:58;4.38;;;1.83;;
13481;SDS011;6813;60.352;15.746;2022-10-16T11:53:13;6.45;;;1.80;;
13481;SDS011;6813;60.352;15.746;2022-10-16T11:55:59;6.65;;;1.90;;
13481;SDS011;6813;60.352;15.746;2022-10-16T11:58:32;6.97;;;1.63;;
13481;SDS011;6813;60.352;15.746;2022-10-16T12:01:21;6.18;;;1.90;;
13481;SDS011;6813;60.352;15.746;2022-10-16T12:07:11;5.57;;;1.77;;
13481;SDS011;6813;60.352;15.746;2022-10-16T12:09:41;8.02;;;2.10;;
13481;SDS011;6813;60.352;15.746;2022-10-16T12:12:27;6.28;;;1.88;;
13481;SDS011;6813;60.352;15.746;2022-10-16T12:15:00;7.15;;;1.85;;
13481;SDS011;6813;60.352;15.746;2022-10-16T12:17:37;10.98;;;2.90;;
13481;SDS011;6813;60.352;15.746;2022-10-16T12:22:41;6.43;;;1.87;;
13481;SDS011;6813;60.352;15.746;2022-10-16T12:25:22;6.27;;;1.80;;
13481;SDS011;6813;60.352;15.746;2022-10-16T12:30:40;6.38;;;1.90;;
13481;SDS011;6813;60.352;15.746;2022-10-16T12:35:50;8.50;;;1.93;;
13481;SDS011;6813;60.352;15.746;2022-10-16T12:38:37;7.32;;;2.17;;
13481;SDS011;6813;60.352;15.746;2022-10-16T12:41:08;8.57;;;1.97;;
13481;SDS011;6813;60.352;15.746;2022-10-16T12:43:38;7.77;;;3.23;;
13481;SDS011;6813;60.352;15.746;2022-10-16T12:48:34;6.63;;;2.05;;
13481;SDS011;6813;60.352;15.746;2022-10-16T12:53:58;9.70;;;2.40;;
13481;SDS011;6813;60.352;15.746;2022-10-16T12:56:51;9.73;;;1.87;;
13481;SDS011;6813;60.352;15.746;2022-10-16T13:13:39;6.97;;;1.70;;
13481;SDS011;6813;60.352;15.746;2022-10-16T13:16:14;5.00;;;1.87;;
13481;SDS011;6813;60.352;15.746;2022-10-16T13:27:07;7.63;;;1.80;;
13481;SDS011;6813;60.352;15.746;2022-10-16T13:29:34;6.70;;;2.03;;
13481;SDS011;6813;60.352;15.746;2022-10-16T13:32:00;9.30;;;2.30;;
13481;SDS011;6813;60.352;15.746;2022-10-16T13:34:32;5.33;;;1.67;;
13481;SDS011;6813;60.352;15.746;2022-10-16T13:36:57;4.43;;;1.90;;
13481;SDS011;6813;60.352;15.746;2022-10-16T13:39:24;4.53;;;1.60;;
13481;SDS011;6813;60.352;15.746;2022-10-16T13:44:44;6.87;;;1.80;;
13481;SDS011;6813;60.352;15.746;2022-10-16T13:47:20;5.70;;;2.10;;
13481;SDS011;6813;60.352;15.746;2022-10-16T13:49:46;8.10;;;1.97;;
13481;SDS011;6813;60.352;15.746;2022-10-16T13:52:23;7.60;;;2.13;;
13481;SDS011;6813;60.352;15.746;2022-10-16T13:54:49;9.47;;;1.93;;
13481;SDS011;6813;60.352;15.746;2022-10-16T13:57:15;7.57;;;2.27;;
13481;SDS011;6813;60.352;15.746;2022-10-16T13:59:42;8.20;;;2.20;;
13481;SDS011;6813;60.352;15.746;2022-10-16T14:04:45;8.07;;;2.97;;
13481;SDS011;6813;60.352;15.746;2022-10-16T14:07:18;11.60;;;3.13;;
13481;SDS011;6813;60.352;15.746;2022-10-16T14:09:50;7.63;;;2.17;;
13481;SDS011;6813;60.352;15.746;2022-10-16T14:12:16;11.17;;;2.80;;
13481;SDS011;6813;60.352;15.746;2022-10-16T14:14:43;7.57;;;2.40;;
13481;SDS011;6813;60.352;15.746;2022-10-16T14:17:33;7.47;;;1.87;;
13481;SDS011;6813;60.352;15.746;2022-10-16T14:20:02;7.33;;;1.87;;
13481;SDS011;6813;60.352;15.746;2022-10-16T14:22:39;6.57;;;2.10;;
13481;SDS011;6813;60.352;15.746;2022-10-16T14:27:44;5.67;;;3.37;;
13481;SDS011;6813;60.352;15.746;2022-10-16T14:30:20;7.67;;;3.00;;
13481;SDS011;6813;60.352;15.746;2022-10-16T14:33:06;7.57;;;2.80;;
13481;SDS011;6813;60.352;15.746;2022-10-16T14:35:45;6.23;;;3.37;;
13481;SDS011;6813;60.352;15.746;2022-10-16T14:38:17;6.40;;;3.20;;
13481;SDS011;6813;60.352;15.746;2022-10-16T14:40:46;6.20;;;2.80;;
13481;SDS011;6813;60.352;15.746;2022-10-16T14:46:05;6.37;;;2.57;;
13481;SDS011;6813;60.352;15.746;2022-10-16T14:48:45;8.67;;;3.90;;
13481;SDS011;6813;60.352;15.746;2022-10-16T14:51:19;9.30;;;3.90;;
13481;SDS011;6813;60.352;15.746;2022-10-16T14:53:45;7.00;;;2.73;;
13481;SDS011;6813;60.352;15.746;2022-10-16T14:56:24;6.43;;;2.40;;
13481;SDS011;6813;60.352;15.746;2022-10-16T14:58:53;8.43;;;2.20;;
13481;SDS011;6813;60.352;15.746;2022-10-16T15:01:20;4.67;;;1.93;;
13481;SDS011;6813;60.352;15.746;2022-10-16T15:03:46;5.97;;;2.20;;
13481;SDS011;6813;60.352;15.746;2022-10-16T15:06:13;10.33;;;2.73;;
13481;SDS011;6813;60.352;15.746;2022-10-16T15:08:42;5.53;;;2.10;;
13481;SDS011;6813;60.352;15.746;2022-10-16T15:11:17;4.47;;;2.20;;
13481;SDS011;6813;60.352;15.746;2022-10-16T15:13:44;4.90;;;1.93;;
13481;SDS011;6813;60.352;15.746;2022-10-16T15:16:12;5.23;;;2.20;;
13481;SDS011;6813;60.352;15.746;2022-10-16T15:18:38;4.80;;;2.43;;
13481;SDS011;6813;60.352;15.746;2022-10-16T15:21:04;8.40;;;2.70;;
13481;SDS011;6813;60.352;15.746;2022-10-16T15:23:30;11.20;;;2.30;;
13481;SDS011;6813;60.352;15.746;2022-10-16T15:25:56;6.53;;;2.30;;
13481;SDS011;6813;60.352;15.746;2022-10-16T15:28:22;6.77;;;3.10;;
13481;SDS011;6813;60.352;15.746;2022-10-16T15:30:49;5.53;;;2.50;;
13481;SDS011;6813;60.352;15.746;2022-10-16T15:33:20;7.37;;;3.13;;
13481;SDS011;6813;60.352;15.746;2022-10-16T15:35:48;14.87;;;9.50;;
13481;SDS011;6813;60.352;15.746;2022-10-16T15:38:16;9.17;;;4.93;;
13481;SDS011;6813;60.352;15.746;2022-10-16T15:40:44;3.97;;;1.70;;
13481;SDS011;6813;60.352;15.746;2022-10-16T15:43:10;6.87;;;2.13;;
13481;SDS011;6813;60.352;15.746;2022-10-16T15:45:36;5.67;;;2.07;;
13481;SDS011;6813;60.352;15.746;2022-10-16T15:48:02;3.73;;;2.03;;
13481;SDS011;6813;60.352;15.746;2022-10-16T15:50:28;6.43;;;1.57;;
13481;SDS011;6813;60.352;15.746;2022-10-16T15:52:55;4.17;;;1.90;;
13481;SDS011;6813;60.352;15.746;2022-10-16T15:55:21;2.43;;;1.20;;
13481;SDS011;6813;60.352;15.746;2022-10-16T15:57:47;3.43;;;1.10;;
13481;SDS011;6813;60.352;15.746;2022-10-16T16:00:17;3.23;;;1.03;;
13481;SDS011;6813;60.352;15.746;2022-10-16T16:02:51;3.43;;;1.30;;
13481;SDS011;6813;60.352;15.746;2022-10-16T16:05:18;1.93;;;0.80;;
13481;SDS011;6813;60.352;15.746;2022-10-16T16:07:45;4.17;;;1.07;;
13481;SDS011;6813;60.352;15.746;2022-10-16T16:10:11;3.50;;;1.27;;
13481;SDS011;6813;60.352;15.746;2022-10-16T16:12:37;3.10;;;1.03;;
13481;SDS011;6813;60.352;15.746;2022-10-16T16:15:07;5.73;;;1.43;;
13481;SDS011;6813;60.352;15.746;2022-10-16T16:17:34;4.30;;;0.93;;
13481;SDS011;6813;60.352;15.746;2022-10-16T16:20:01;5.43;;;2.57;;
13481;SDS011;6813;60.352;15.746;2022-10-16T16:22:28;2.03;;;1.00;;
13481;SDS011;6813;60.352;15.746;2022-10-16T16:24:54;2.00;;;0.90;;
13481;SDS011;6813;60.352;15.746;2022-10-16T16:27:20;2.20;;;1.00;;
13481;SDS011;6813;60.352;15.746;2022-10-16T16:29:46;2.00;;;0.97;;
13481;SDS011;6813;60.352;15.746;2022-10-16T16:32:12;2.67;;;1.03;;
13481;SDS011;6813;60.352;15.746;2022-10-16T16:34:38;4.07;;;1.40;;
13481;SDS011;6813;60.352;15.746;2022-10-16T16:37:04;4.03;;;1.20;;
13481;SDS011;6813;60.352;15.746;2022-10-16T16:39:29;1.73;;;1.00;;
13481;SDS011;6813;60.352;15.746;2022-10-16T16:41:56;2.17;;;1.70;;
13481;SDS011;6813;60.352;15.746;2022-10-16T16:44:23;2.53;;;1.97;;
13481;SDS011;6813;60.352;15.746;2022-10-16T16:46:49;3.27;;;1.40;;
13481;SDS011;6813;60.352;15.746;2022-10-16T16:49:15;2.43;;;1.77;;
13481;SDS011;6813;60.352;15.746;2022-10-16T16:51:40;4.13;;;2.57;;
13481;SDS011;6813;60.352;15.746;2022-10-16T16:54:07;2.70;;;1.60;;
13481;SDS011;6813;60.352;15.746;2022-10-16T16:56:34;2.90;;;1.90;;
13481;SDS011;6813;60.352;15.746;2022-10-16T16:59:00;4.03;;;2.00;;
13481;SDS011;6813;60.352;15.746;2022-10-16T17:01:26;2.83;;;1.63;;
13481;SDS011;6813;60.352;15.746;2022-10-16T17:03:54;3.90;;;1.87;;
13481;SDS011;6813;60.352;15.746;2022-10-16T17:06:21;2.60;;;1.30;;
13481;SDS011;6813;60.352;15.746;2022-10-16T17:08:48;2.03;;;1.40;;
13481;SDS011;6813;60.352;15.746;2022-10-16T17:11:16;2.20;;;0.90;;